sensor_id;sensor_type;location;lat;lon;timestamp;P1;durP1;ratioP1;P2;durP2;ratioP2
50954;SDS011;36966;48.064;-0.792;2022-12-15T00:01:02;15.00;;;7.70;;
50954;SDS011;36966;48.064;-0.792;2022-12-15T00:03:40;16.27;;;8.10;;
50954;SDS011;36966;48.064;-0.792;2022-12-15T00:06:18;14.98;;;7.80;;
50954;SDS011;36966;48.064;-0.792;2022-12-15T00:08:56;14.55;;;7.45;;
50954;SDS011;36966;48.064;-0.792;2022-12-15T00:11:34;14.02;;;7.78;;
50954;SDS011;36966;48.064;-0.792;2022-12-15T00:14:12;17.25;;;7.32;;
50954;SDS011;36966;48.064;-0.792;2022-12-15T00:16:50;13.85;;;7.13;;
50954;SDS011;36966;48.064;-0.792;2022-12-15T00:19:29;14.38;;;6.95;;
50954;SDS011;36966;48.064;-0.792;2022-12-15T00:22:07;14.73;;;7.85;;
50954;SDS011;36966;48.064;-0.792;2022-12-15T00:24:45;16.73;;;7.45;;
50954;SDS011;36966;48.064;-0.792;2022-12-15T00:27:23;16.38;;;8.32;;
50954;SDS011;36966;48.064;-0.792;2022-12-15T00:30:01;12.43;;;6.72;;
50954;SDS011;36966;48.064;-0.792;2022-12-15T00:32:40;14.60;;;7.32;;
50954;SDS011;36966;48.064;-0.792;2022-12-15T00:35:18;11.88;;;6.85;;
50954;SDS011;36966;48.064;-0.792;2022-12-15T00:37:57;17.38;;;7.10;;
50954;SDS011;36966;48.064;-0.792;2022-12-15T00:40:35;13.35;;;7.63;;
50954;SDS011;36966;48.064;-0.792;2022-12-15T00:42:54;10.70;;;6.78;;
50954;SDS011;36966;48.064;-0.792;2022-12-15T00:45:13;13.40;;;6.80;;
50954;SDS011;36966;48.064;-0.792;2022-12-15T00:47:33;16.50;;;7.25;;
50954;SDS011;36966;48.064;-0.792;2022-12-15T00:49:52;10.57;;;6.07;;
50954;SDS011;36966;48.064;-0.792;2022-12-15T00:52:30;12.23;;;7.00;;
50954;SDS011;36966;48.064;-0.792;2022-12-15T00:55:08;14.00;;;7.43;;
50954;SDS011;36966;48.064;-0.792;2022-12-15T00:57:46;12.43;;;6.47;;
50954;SDS011;36966;48.064;-0.792;2022-12-15T01:00:24;10.23;;;5.78;;
50954;SDS011;36966;48.064;-0.792;2022-12-15T01:03:12;12.95;;;6.15;;
50954;SDS011;36966;48.064;-0.792;2022-12-15T01:05:53;10.82;;;6.47;;
50954;SDS011;36966;48.064;-0.792;2022-12-15T01:08:31;14.65;;;7.53;;
50954;SDS011;36966;48.064;-0.792;2022-12-15T01:11:09;11.48;;;6.00;;
50954;SDS011;36966;48.064;-0.792;2022-12-15T01:13:47;8.90;;;5.07;;
50954;SDS011;36966;48.064;-0.792;2022-12-15T01:16:25;17.45;;;6.95;;
50954;SDS011;36966;48.064;-0.792;2022-12-15T01:19:03;11.68;;;6.03;;
50954;SDS011;36966;48.064;-0.792;2022-12-15T01:21:44;12.75;;;6.07;;
50954;SDS011;36966;48.064;-0.792;2022-12-15T01:24:03;8.70;;;5.28;;
50954;SDS011;36966;48.064;-0.792;2022-12-15T01:26:23;11.13;;;6.60;;
50954;SDS011;36966;48.064;-0.792;2022-12-15T01:28:42;12.57;;;6.70;;
50954;SDS011;36966;48.064;-0.792;2022-12-15T01:31:01;12.85;;;6.55;;
50954;SDS011;36966;48.064;-0.792;2022-12-15T01:33:29;11.77;;;6.28;;
50954;SDS011;36966;48.064;-0.792;2022-12-15T01:35:57;11.27;;;6.50;;
50954;SDS011;36966;48.064;-0.792;2022-12-15T01:38:17;11.30;;;5.78;;
50954;SDS011;36966;48.064;-0.792;2022-12-15T01:40:37;10.55;;;5.55;;
50954;SDS011;36966;48.064;-0.792;2022-12-15T01:43:15;11.57;;;6.70;;
50954;SDS011;36966;48.064;-0.792;2022-12-15T01:45:39;12.18;;;6.65;;
50954;SDS011;36966;48.064;-0.792;2022-12-15T01:48:06;14.18;;;7.03;;
50954;SDS011;36966;48.064;-0.792;2022-12-15T01:50:28;13.95;;;7.15;;
50954;SDS011;36966;48.064;-0.792;2022-12-15T01:52:50;11.55;;;5.90;;
50954;SDS011;36966;48.064;-0.792;2022-12-15T01:55:11;11.43;;;5.57;;
50954;SDS011;36966;48.064;-0.792;2022-12-15T01:57:31;11.70;;;6.25;;
50954;SDS011;36966;48.064;-0.792;2022-12-15T01:59:55;11.00;;;5.97;;
50954;SDS011;36966;48.064;-0.792;2022-12-15T02:02:18;13.63;;;6.30;;
50954;SDS011;36966;48.064;-0.792;2022-12-15T02:04:41;11.77;;;7.00;;
50954;SDS011;36966;48.064;-0.792;2022-12-15T02:07:00;17.17;;;7.47;;
50954;SDS011;36966;48.064;-0.792;2022-12-15T02:09:20;10.32;;;6.20;;
50954;SDS011;36966;48.064;-0.792;2022-12-15T02:14:41;12.98;;;7.10;;
50954;SDS011;36966;48.064;-0.792;2022-12-15T02:17:39;12.68;;;6.60;;
50954;SDS011;36966;48.064;-0.792;2022-12-15T02:21:19;9.85;;;5.10;;
50954;SDS011;36966;48.064;-0.792;2022-12-15T02:31:32;12.48;;;6.25;;
50954;SDS011;36966;48.064;-0.792;2022-12-15T02:34:09;12.60;;;6.50;;
50954;SDS011;36966;48.064;-0.792;2022-12-15T02:36:58;14.45;;;7.07;;
50954;SDS011;36966;48.064;-0.792;2022-12-15T02:39:26;16.85;;;6.20;;
50954;SDS011;36966;48.064;-0.792;2022-12-15T02:41:46;12.07;;;6.97;;
50954;SDS011;36966;48.064;-0.792;2022-12-15T02:44:29;12.75;;;6.40;;
50954;SDS011;36966;48.064;-0.792;2022-12-15T02:55:15;14.38;;;6.82;;
50954;SDS011;36966;48.064;-0.792;2022-12-15T02:57:53;14.00;;;7.07;;
50954;SDS011;36966;48.064;-0.792;2022-12-15T03:00:22;11.90;;;7.05;;
50954;SDS011;36966;48.064;-0.792;2022-12-15T03:02:49;13.00;;;5.85;;
50954;SDS011;36966;48.064;-0.792;2022-12-15T03:05:11;13.05;;;6.95;;
50954;SDS011;36966;48.064;-0.792;2022-12-15T03:07:31;11.77;;;7.03;;
50954;SDS011;36966;48.064;-0.792;2022-12-15T03:09:50;9.90;;;6.05;;
50954;SDS011;36966;48.064;-0.792;2022-12-15T03:12:10;12.38;;;6.97;;
50954;SDS011;36966;48.064;-0.792;2022-12-15T03:14:29;10.38;;;6.07;;
50954;SDS011;36966;48.064;-0.792;2022-12-15T03:16:48;12.68;;;6.55;;
50954;SDS011;36966;48.064;-0.792;2022-12-15T03:19:07;11.50;;;6.35;;
50954;SDS011;36966;48.064;-0.792;2022-12-15T03:21:27;9.80;;;5.88;;
50954;SDS011;36966;48.064;-0.792;2022-12-15T03:23:46;13.05;;;7.57;;
50954;SDS011;36966;48.064;-0.792;2022-12-15T03:26:05;13.32;;;6.80;;
50954;SDS011;36966;48.064;-0.792;2022-12-15T03:28:24;11.57;;;6.53;;
50954;SDS011;36966;48.064;-0.792;2022-12-15T03:30:43;12.82;;;6.88;;
50954;SDS011;36966;48.064;-0.792;2022-12-15T03:33:03;12.23;;;6.20;;
50954;SDS011;36966;48.064;-0.792;2022-12-15T03:35:22;11.27;;;6.03;;
50954;SDS011;36966;48.064;-0.792;2022-12-15T03:37:41;10.75;;;6.28;;
50954;SDS011;36966;48.064;-0.792;2022-12-15T03:40:00;13.02;;;6.13;;
50954;SDS011;36966;48.064;-0.792;2022-12-15T03:42:20;15.35;;;5.90;;
50954;SDS011;36966;48.064;-0.792;2022-12-15T03:44:59;12.82;;;5.95;;
50954;SDS011;36966;48.064;-0.792;2022-12-15T03:47:18;10.43;;;5.60;;
50954;SDS011;36966;48.064;-0.792;2022-12-15T03:49:38;10.93;;;6.25;;
50954;SDS011;36966;48.064;-0.792;2022-12-15T03:51:57;10.50;;;5.82;;
50954;SDS011;36966;48.064;-0.792;2022-12-15T03:54:16;15.10;;;5.95;;
50954;SDS011;36966;48.064;-0.792;2022-12-15T03:56:35;10.32;;;5.72;;
50954;SDS011;36966;48.064;-0.792;2022-12-15T03:58:54;11.88;;;5.47;;
50954;SDS011;36966;48.064;-0.792;2022-12-15T04:01:33;11.77;;;5.88;;
50954;SDS011;36966;48.064;-0.792;2022-12-15T04:03:53;8.88;;;5.28;;
50954;SDS011;36966;48.064;-0.792;2022-12-15T04:06:13;9.85;;;4.80;;
50954;SDS011;36966;48.064;-0.792;2022-12-15T04:08:32;8.45;;;4.55;;
50954;SDS011;36966;48.064;-0.792;2022-12-15T04:10:51;8.82;;;5.15;;
50954;SDS011;36966;48.064;-0.792;2022-12-15T04:13:11;11.00;;;5.70;;
50954;SDS011;36966;48.064;-0.792;2022-12-15T04:15:30;10.25;;;5.57;;
50954;SDS011;36966;48.064;-0.792;2022-12-15T04:17:50;11.60;;;4.95;;
50954;SDS011;36966;48.064;-0.792;2022-12-15T04:20:09;7.88;;;4.80;;
50954;SDS011;36966;48.064;-0.792;2022-12-15T04:22:29;9.13;;;5.00;;
50954;SDS011;36966;48.064;-0.792;2022-12-15T04:24:48;11.52;;;5.82;;
50954;SDS011;36966;48.064;-0.792;2022-12-15T04:27:26;11.50;;;4.68;;
50954;SDS011;36966;48.064;-0.792;2022-12-15T04:30:04;9.27;;;4.65;;
50954;SDS011;36966;48.064;-0.792;2022-12-15T04:32:43;9.88;;;5.47;;
50954;SDS011;36966;48.064;-0.792;2022-12-15T04:35:21;9.23;;;5.13;;
50954;SDS011;36966;48.064;-0.792;2022-12-15T04:37:59;9.68;;;4.15;;
50954;SDS011;36966;48.064;-0.792;2022-12-15T04:40:38;8.23;;;4.50;;
50954;SDS011;36966;48.064;-0.792;2022-12-15T04:43:16;10.23;;;4.78;;
50954;SDS011;36966;48.064;-0.792;2022-12-15T04:45:54;10.27;;;4.97;;
50954;SDS011;36966;48.064;-0.792;2022-12-15T04:48:32;8.43;;;4.72;;
50954;SDS011;36966;48.064;-0.792;2022-12-15T04:51:10;8.98;;;4.68;;
50954;SDS011;36966;48.064;-0.792;2022-12-15T04:53:48;11.68;;;4.97;;
50954;SDS011;36966;48.064;-0.792;2022-12-15T04:56:26;9.23;;;4.30;;
50954;SDS011;36966;48.064;-0.792;2022-12-15T04:59:04;9.13;;;4.53;;
50954;SDS011;36966;48.064;-0.792;2022-12-15T05:01:43;10.13;;;5.53;;
50954;SDS011;36966;48.064;-0.792;2022-12-15T05:04:21;13.18;;;5.95;;
50954;SDS011;36966;48.064;-0.792;2022-12-15T05:06:59;8.73;;;5.00;;
50954;SDS011;36966;48.064;-0.792;2022-12-15T05:09:37;12.23;;;5.45;;
50954;SDS011;36966;48.064;-0.792;2022-12-15T05:12:16;10.90;;;5.45;;
50954;SDS011;36966;48.064;-0.792;2022-12-15T05:14:54;9.32;;;4.82;;
50954;SDS011;36966;48.064;-0.792;2022-12-15T05:17:31;8.80;;;4.85;;
50954;SDS011;36966;48.064;-0.792;2022-12-15T05:20:09;9.02;;;4.85;;
50954;SDS011;36966;48.064;-0.792;2022-12-15T05:22:52;10.18;;;5.68;;
50954;SDS011;36966;48.064;-0.792;2022-12-15T05:25:30;12.43;;;5.80;;
50954;SDS011;36966;48.064;-0.792;2022-12-15T05:28:08;11.73;;;5.82;;
50954;SDS011;36966;48.064;-0.792;2022-12-15T05:30:46;15.13;;;6.05;;
50954;SDS011;36966;48.064;-0.792;2022-12-15T05:33:24;12.82;;;5.55;;
50954;SDS011;36966;48.064;-0.792;2022-12-15T05:35:44;8.77;;;5.22;;
50954;SDS011;36966;48.064;-0.792;2022-12-15T05:38:06;11.23;;;4.82;;
50954;SDS011;36966;48.064;-0.792;2022-12-15T05:40:25;9.70;;;5.75;;
50954;SDS011;36966;48.064;-0.792;2022-12-15T05:42:44;11.40;;;6.13;;
50954;SDS011;36966;48.064;-0.792;2022-12-15T05:45:03;12.68;;;5.43;;
50954;SDS011;36966;48.064;-0.792;2022-12-15T05:47:23;9.55;;;4.85;;
50954;SDS011;36966;48.064;-0.792;2022-12-15T05:49:42;9.00;;;4.72;;
50954;SDS011;36966;48.064;-0.792;2022-12-15T05:52:01;10.27;;;5.60;;
50954;SDS011;36966;48.064;-0.792;2022-12-15T05:54:21;13.38;;;6.78;;
50954;SDS011;36966;48.064;-0.792;2022-12-15T05:56:40;12.00;;;5.63;;
50954;SDS011;36966;48.064;-0.792;2022-12-15T05:59:01;9.05;;;5.72;;
50954;SDS011;36966;48.064;-0.792;2022-12-15T06:01:21;9.35;;;5.88;;
50954;SDS011;36966;48.064;-0.792;2022-12-15T06:03:41;13.38;;;6.40;;
50954;SDS011;36966;48.064;-0.792;2022-12-15T06:06:01;7.93;;;5.32;;
50954;SDS011;36966;48.064;-0.792;2022-12-15T06:08:20;11.05;;;6.10;;
50954;SDS011;36966;48.064;-0.792;2022-12-15T06:10:39;12.00;;;5.38;;
50954;SDS011;36966;48.064;-0.792;2022-12-15T06:12:58;11.10;;;6.25;;
50954;SDS011;36966;48.064;-0.792;2022-12-15T06:15:17;10.32;;;6.07;;
50954;SDS011;36966;48.064;-0.792;2022-12-15T06:17:37;10.57;;;5.38;;
50954;SDS011;36966;48.064;-0.792;2022-12-15T06:19:56;11.20;;;5.50;;
50954;SDS011;36966;48.064;-0.792;2022-12-15T06:22:15;12.50;;;6.00;;
50954;SDS011;36966;48.064;-0.792;2022-12-15T06:24:34;11.93;;;6.53;;
50954;SDS011;36966;48.064;-0.792;2022-12-15T06:26:53;15.15;;;6.05;;
50954;SDS011;36966;48.064;-0.792;2022-12-15T06:29:13;12.30;;;6.53;;
50954;SDS011;36966;48.064;-0.792;2022-12-15T06:31:33;11.70;;;6.75;;
50954;SDS011;36966;48.064;-0.792;2022-12-15T06:33:54;11.20;;;7.20;;
50954;SDS011;36966;48.064;-0.792;2022-12-15T06:36:14;12.07;;;7.00;;
50954;SDS011;36966;48.064;-0.792;2022-12-15T06:38:35;13.63;;;5.80;;
50954;SDS011;36966;48.064;-0.792;2022-12-15T06:40:55;16.00;;;6.57;;
50954;SDS011;36966;48.064;-0.792;2022-12-15T06:43:15;11.75;;;6.22;;
50954;SDS011;36966;48.064;-0.792;2022-12-15T06:45:34;12.65;;;6.57;;
50954;SDS011;36966;48.064;-0.792;2022-12-15T06:47:54;17.90;;;7.38;;
50954;SDS011;36966;48.064;-0.792;2022-12-15T06:50:13;11.93;;;6.03;;
50954;SDS011;36966;48.064;-0.792;2022-12-15T06:52:32;11.73;;;5.47;;
50954;SDS011;36966;48.064;-0.792;2022-12-15T06:54:51;13.32;;;6.15;;
50954;SDS011;36966;48.064;-0.792;2022-12-15T06:57:12;18.08;;;8.45;;
50954;SDS011;36966;48.064;-0.792;2022-12-15T06:59:31;13.07;;;5.00;;
50954;SDS011;36966;48.064;-0.792;2022-12-15T07:01:50;13.88;;;6.30;;
50954;SDS011;36966;48.064;-0.792;2022-12-15T07:04:09;13.10;;;6.20;;
50954;SDS011;36966;48.064;-0.792;2022-12-15T07:06:36;14.20;;;6.82;;
50954;SDS011;36966;48.064;-0.792;2022-12-15T07:08:56;10.35;;;6.38;;
50954;SDS011;36966;48.064;-0.792;2022-12-15T07:11:16;12.38;;;6.68;;
50954;SDS011;36966;48.064;-0.792;2022-12-15T07:13:35;13.32;;;6.03;;
50954;SDS011;36966;48.064;-0.792;2022-12-15T07:15:57;9.07;;;5.65;;
50954;SDS011;36966;48.064;-0.792;2022-12-15T07:18:20;12.30;;;5.90;;
50954;SDS011;36966;48.064;-0.792;2022-12-15T07:20:39;12.02;;;5.53;;
50954;SDS011;36966;48.064;-0.792;2022-12-15T07:22:58;11.82;;;6.13;;
50954;SDS011;36966;48.064;-0.792;2022-12-15T07:25:18;14.60;;;7.15;;
50954;SDS011;36966;48.064;-0.792;2022-12-15T07:27:38;10.55;;;5.60;;
50954;SDS011;36966;48.064;-0.792;2022-12-15T07:29:57;11.00;;;6.18;;
50954;SDS011;36966;48.064;-0.792;2022-12-15T07:32:16;10.35;;;6.00;;
50954;SDS011;36966;48.064;-0.792;2022-12-15T07:34:36;10.70;;;5.57;;
50954;SDS011;36966;48.064;-0.792;2022-12-15T07:36:55;9.38;;;5.97;;
50954;SDS011;36966;48.064;-0.792;2022-12-15T07:39:14;14.30;;;5.50;;
50954;SDS011;36966;48.064;-0.792;2022-12-15T07:41:34;10.85;;;5.57;;
50954;SDS011;36966;48.064;-0.792;2022-12-15T07:43:53;10.48;;;5.63;;
50954;SDS011;36966;48.064;-0.792;2022-12-15T07:46:12;9.55;;;5.20;;
50954;SDS011;36966;48.064;-0.792;2022-12-15T07:48:31;10.63;;;5.80;;
50954;SDS011;36966;48.064;-0.792;2022-12-15T07:50:51;9.40;;;5.80;;
50954;SDS011;36966;48.064;-0.792;2022-12-15T07:53:14;38.17;;;19.15;;
50954;SDS011;36966;48.064;-0.792;2022-12-15T07:55:33;33.00;;;16.10;;
50954;SDS011;36966;48.064;-0.792;2022-12-15T07:57:53;26.60;;;14.88;;
50954;SDS011;36966;48.064;-0.792;2022-12-15T08:00:12;27.60;;;15.02;;
50954;SDS011;36966;48.064;-0.792;2022-12-15T08:02:32;20.65;;;12.05;;
50954;SDS011;36966;48.064;-0.792;2022-12-15T08:04:52;18.65;;;11.73;;
50954;SDS011;36966;48.064;-0.792;2022-12-15T08:07:11;28.85;;;11.13;;
50954;SDS011;36966;48.064;-0.792;2022-12-15T08:09:31;23.33;;;10.20;;
50954;SDS011;36966;48.064;-0.792;2022-12-15T08:11:50;18.60;;;10.70;;
50954;SDS011;36966;48.064;-0.792;2022-12-15T08:14:09;20.27;;;9.90;;
50954;SDS011;36966;48.064;-0.792;2022-12-15T08:16:29;17.13;;;8.68;;
50954;SDS011;36966;48.064;-0.792;2022-12-15T08:18:48;15.13;;;8.95;;
50954;SDS011;36966;48.064;-0.792;2022-12-15T08:21:08;17.70;;;9.25;;
50954;SDS011;36966;48.064;-0.792;2022-12-15T08:23:29;16.48;;;8.82;;
50954;SDS011;36966;48.064;-0.792;2022-12-15T08:25:49;16.88;;;8.10;;
50954;SDS011;36966;48.064;-0.792;2022-12-15T08:28:08;17.75;;;8.43;;
50954;SDS011;36966;48.064;-0.792;2022-12-15T08:30:27;13.80;;;7.95;;
50954;SDS011;36966;48.064;-0.792;2022-12-15T08:32:46;59.50;;;34.25;;
50954;SDS011;36966;48.064;-0.792;2022-12-15T08:35:06;62.72;;;38.03;;
50954;SDS011;36966;48.064;-0.792;2022-12-15T08:37:26;54.70;;;31.20;;
50954;SDS011;36966;48.064;-0.792;2022-12-15T08:39:45;53.13;;;29.73;;
50954;SDS011;36966;48.064;-0.792;2022-12-15T08:42:06;57.75;;;33.63;;
50954;SDS011;36966;48.064;-0.792;2022-12-15T08:44:25;56.42;;;31.67;;
50954;SDS011;36966;48.064;-0.792;2022-12-15T08:46:44;56.35;;;32.72;;
50954;SDS011;36966;48.064;-0.792;2022-12-15T08:49:03;58.05;;;31.77;;
50954;SDS011;36966;48.064;-0.792;2022-12-15T08:51:23;30.45;;;19.45;;
50954;SDS011;36966;48.064;-0.792;2022-12-15T08:53:46;40.85;;;19.75;;
50954;SDS011;36966;48.064;-0.792;2022-12-15T08:56:09;33.90;;;18.67;;
50954;SDS011;36966;48.064;-0.792;2022-12-15T08:58:30;29.17;;;16.15;;
50954;SDS011;36966;48.064;-0.792;2022-12-15T09:00:50;33.35;;;19.52;;
50954;SDS011;36966;48.064;-0.792;2022-12-15T09:03:09;30.67;;;17.38;;
50954;SDS011;36966;48.064;-0.792;2022-12-15T09:05:28;37.08;;;20.88;;
50954;SDS011;36966;48.064;-0.792;2022-12-15T09:07:48;26.35;;;15.65;;
50954;SDS011;36966;48.064;-0.792;2022-12-15T09:10:12;32.33;;;16.33;;
50954;SDS011;36966;48.064;-0.792;2022-12-15T09:12:31;26.63;;;14.45;;
50954;SDS011;36966;48.064;-0.792;2022-12-15T09:14:50;26.23;;;15.13;;
50954;SDS011;36966;48.064;-0.792;2022-12-15T09:17:10;25.27;;;13.05;;
50954;SDS011;36966;48.064;-0.792;2022-12-15T09:19:30;22.63;;;12.27;;
50954;SDS011;36966;48.064;-0.792;2022-12-15T09:21:49;21.00;;;11.00;;
50954;SDS011;36966;48.064;-0.792;2022-12-15T09:24:09;17.85;;;9.85;;
50954;SDS011;36966;48.064;-0.792;2022-12-15T09:26:31;20.90;;;10.48;;
50954;SDS011;36966;48.064;-0.792;2022-12-15T09:28:52;19.83;;;9.88;;
50954;SDS011;36966;48.064;-0.792;2022-12-15T09:31:16;17.02;;;9.43;;
50954;SDS011;36966;48.064;-0.792;2022-12-15T09:33:41;15.15;;;9.02;;
50954;SDS011;36966;48.064;-0.792;2022-12-15T09:36:01;15.32;;;9.32;;
50954;SDS011;36966;48.064;-0.792;2022-12-15T09:38:21;16.85;;;8.57;;
50954;SDS011;36966;48.064;-0.792;2022-12-15T09:40:40;14.57;;;8.15;;
50954;SDS011;36966;48.064;-0.792;2022-12-15T09:43:00;12.10;;;7.80;;
50954;SDS011;36966;48.064;-0.792;2022-12-15T09:45:30;15.30;;;8.90;;
50954;SDS011;36966;48.064;-0.792;2022-12-15T09:48:01;16.30;;;7.80;;
50954;SDS011;36966;48.064;-0.792;2022-12-15T09:50:28;17.08;;;8.82;;
50954;SDS011;36966;48.064;-0.792;2022-12-15T09:53:02;14.05;;;8.05;;
50954;SDS011;36966;48.064;-0.792;2022-12-15T09:55:29;13.27;;;7.50;;
50954;SDS011;36966;48.064;-0.792;2022-12-15T09:58:10;16.25;;;8.38;;
50954;SDS011;36966;48.064;-0.792;2022-12-15T10:06:14;12.83;;;6.83;;
50954;SDS011;36966;48.064;-0.792;2022-12-15T10:08:41;12.75;;;6.57;;
50954;SDS011;36966;48.064;-0.792;2022-12-15T10:11:15;15.10;;;7.20;;
50954;SDS011;36966;48.064;-0.792;2022-12-15T10:15:59;17.88;;;7.38;;
50954;SDS011;36966;48.064;-0.792;2022-12-15T10:21:27;14.80;;;6.85;;
50954;SDS011;36966;48.064;-0.792;2022-12-15T10:23:48;12.40;;;6.65;;
50954;SDS011;36966;48.064;-0.792;2022-12-15T10:26:20;11.00;;;5.72;;
50954;SDS011;36966;48.064;-0.792;2022-12-15T10:31:16;10.65;;;6.18;;
50954;SDS011;36966;48.064;-0.792;2022-12-15T10:33:43;13.23;;;6.43;;
50954;SDS011;36966;48.064;-0.792;2022-12-15T10:36:09;13.75;;;7.30;;
50954;SDS011;36966;48.064;-0.792;2022-12-15T10:38:34;11.27;;;5.63;;
50954;SDS011;36966;48.064;-0.792;2022-12-15T10:40:57;9.75;;;6.13;;
50954;SDS011;36966;48.064;-0.792;2022-12-15T10:43:29;13.93;;;7.30;;
50954;SDS011;36966;48.064;-0.792;2022-12-15T10:46:01;12.82;;;6.63;;
50954;SDS011;36966;48.064;-0.792;2022-12-15T10:48:21;13.38;;;6.70;;
50954;SDS011;36966;48.064;-0.792;2022-12-15T10:50:41;19.52;;;6.65;;
50954;SDS011;36966;48.064;-0.792;2022-12-15T10:53:01;11.15;;;6.18;;
50954;SDS011;36966;48.064;-0.792;2022-12-15T10:55:37;10.93;;;5.90;;
50954;SDS011;36966;48.064;-0.792;2022-12-15T10:57:59;13.70;;;6.25;;
50954;SDS011;36966;48.064;-0.792;2022-12-15T11:00:24;10.10;;;5.47;;
50954;SDS011;36966;48.064;-0.792;2022-12-15T11:02:46;11.20;;;5.75;;
50954;SDS011;36966;48.064;-0.792;2022-12-15T11:05:15;9.90;;;6.13;;
50954;SDS011;36966;48.064;-0.792;2022-12-15T11:07:36;9.45;;;5.00;;
50954;SDS011;36966;48.064;-0.792;2022-12-15T11:10:01;11.88;;;5.88;;
50954;SDS011;36966;48.064;-0.792;2022-12-15T11:12:32;11.10;;;6.20;;
50954;SDS011;36966;48.064;-0.792;2022-12-15T11:17:41;11.10;;;6.07;;
50954;SDS011;36966;48.064;-0.792;2022-12-15T11:20:05;7.88;;;4.72;;
50954;SDS011;36966;48.064;-0.792;2022-12-15T11:25:11;8.52;;;4.07;;
50954;SDS011;36966;48.064;-0.792;2022-12-15T11:27:41;14.85;;;5.43;;
50954;SDS011;36966;48.064;-0.792;2022-12-15T11:32:31;9.77;;;4.72;;
50954;SDS011;36966;48.064;-0.792;2022-12-15T11:34:52;10.63;;;5.25;;
50954;SDS011;36966;48.064;-0.792;2022-12-15T11:40:04;7.43;;;4.38;;
50954;SDS011;36966;48.064;-0.792;2022-12-15T11:48:15;13.57;;;4.90;;
50954;SDS011;36966;48.064;-0.792;2022-12-15T11:53:35;11.95;;;6.07;;
50954;SDS011;36966;48.064;-0.792;2022-12-15T11:56:23;10.45;;;4.80;;
50954;SDS011;36966;48.064;-0.792;2022-12-15T12:04:24;6.53;;;3.70;;
50954;SDS011;36966;48.064;-0.792;2022-12-15T12:09:46;8.32;;;3.67;;
50954;SDS011;36966;48.064;-0.792;2022-12-15T12:17:39;8.50;;;3.05;;
50954;SDS011;36966;48.064;-0.792;2022-12-15T12:20:07;7.60;;;3.10;;
50954;SDS011;36966;48.064;-0.792;2022-12-15T12:22:33;5.60;;;2.63;;
50954;SDS011;36966;48.064;-0.792;2022-12-15T12:25:02;5.75;;;2.65;;
50954;SDS011;36966;48.064;-0.792;2022-12-15T12:30:20;4.95;;;2.38;;
50954;SDS011;36966;48.064;-0.792;2022-12-15T12:35:24;5.30;;;1.83;;
50954;SDS011;36966;48.064;-0.792;2022-12-15T12:38:00;4.00;;;2.33;;
50954;SDS011;36966;48.064;-0.792;2022-12-15T12:42:52;6.63;;;1.80;;
50954;SDS011;36966;48.064;-0.792;2022-12-15T12:45:14;5.57;;;1.85;;
50954;SDS011;36966;48.064;-0.792;2022-12-15T12:47:34;4.38;;;2.22;;
50954;SDS011;36966;48.064;-0.792;2022-12-15T12:50:02;6.63;;;2.90;;
50954;SDS011;36966;48.064;-0.792;2022-12-15T12:52:27;4.00;;;2.47;;
50954;SDS011;36966;48.064;-0.792;2022-12-15T12:54:54;3.65;;;2.05;;
50954;SDS011;36966;48.064;-0.792;2022-12-15T12:57:29;4.25;;;2.50;;
50954;SDS011;36966;48.064;-0.792;2022-12-15T13:04:59;5.40;;;3.30;;
50954;SDS011;36966;48.064;-0.792;2022-12-15T13:07:27;6.93;;;3.88;;
50954;SDS011;36966;48.064;-0.792;2022-12-15T13:12:44;6.75;;;2.97;;
50954;SDS011;36966;48.064;-0.792;2022-12-15T13:15:11;7.97;;;3.60;;
50954;SDS011;36966;48.064;-0.792;2022-12-15T13:17:37;7.05;;;3.10;;
50954;SDS011;36966;48.064;-0.792;2022-12-15T13:22:34;6.30;;;3.28;;
50954;SDS011;36966;48.064;-0.792;2022-12-15T13:24:58;6.70;;;3.00;;
50954;SDS011;36966;48.064;-0.792;2022-12-15T13:27:17;4.72;;;2.70;;
50954;SDS011;36966;48.064;-0.792;2022-12-15T13:29:56;8.05;;;2.55;;
50954;SDS011;36966;48.064;-0.792;2022-12-15T13:32:43;5.25;;;2.65;;
50954;SDS011;36966;48.064;-0.792;2022-12-15T13:37:50;6.20;;;3.70;;
50954;SDS011;36966;48.064;-0.792;2022-12-15T13:42:58;5.85;;;2.92;;
50954;SDS011;36966;48.064;-0.792;2022-12-15T13:47:51;5.97;;;3.30;;
50954;SDS011;36966;48.064;-0.792;2022-12-15T13:50:14;7.38;;;2.55;;
50954;SDS011;36966;48.064;-0.792;2022-12-15T13:52:50;4.25;;;1.75;;
50954;SDS011;36966;48.064;-0.792;2022-12-15T13:55:22;7.50;;;2.25;;
50954;SDS011;36966;48.064;-0.792;2022-12-15T13:57:53;8.18;;;2.70;;
50954;SDS011;36966;48.064;-0.792;2022-12-15T14:00:20;5.18;;;2.75;;
50954;SDS011;36966;48.064;-0.792;2022-12-15T14:02:39;6.93;;;3.28;;
50954;SDS011;36966;48.064;-0.792;2022-12-15T14:12:57;6.20;;;2.97;;
50954;SDS011;36966;48.064;-0.792;2022-12-15T14:15:21;5.88;;;2.85;;
50954;SDS011;36966;48.064;-0.792;2022-12-15T14:17:50;5.13;;;2.40;;
50954;SDS011;36966;48.064;-0.792;2022-12-15T14:20:12;5.80;;;2.60;;
50954;SDS011;36966;48.064;-0.792;2022-12-15T14:22:39;4.35;;;2.47;;
50954;SDS011;36966;48.064;-0.792;2022-12-15T14:27:22;5.97;;;2.80;;
50954;SDS011;36966;48.064;-0.792;2022-12-15T14:29:44;5.65;;;2.60;;
50954;SDS011;36966;48.064;-0.792;2022-12-15T14:32:04;5.70;;;2.85;;
50954;SDS011;36966;48.064;-0.792;2022-12-15T14:34:57;10.77;;;3.50;;
50954;SDS011;36966;48.064;-0.792;2022-12-15T14:37:11;5.38;;;2.63;;
50954;SDS011;36966;48.064;-0.792;2022-12-15T14:39:39;5.38;;;3.13;;
50954;SDS011;36966;48.064;-0.792;2022-12-15T14:46:49;9.48;;;3.28;;
50954;SDS011;36966;48.064;-0.792;2022-12-15T14:49:13;7.70;;;4.03;;
50954;SDS011;36966;48.064;-0.792;2022-12-15T14:51:41;7.63;;;3.28;;
50954;SDS011;36966;48.064;-0.792;2022-12-15T14:54:04;5.43;;;2.97;;
50954;SDS011;36966;48.064;-0.792;2022-12-15T14:56:24;16.05;;;3.55;;
50954;SDS011;36966;48.064;-0.792;2022-12-15T15:01:24;4.88;;;2.90;;
50954;SDS011;36966;48.064;-0.792;2022-12-15T15:03:56;6.60;;;2.90;;
50954;SDS011;36966;48.064;-0.792;2022-12-15T15:06:34;5.45;;;3.15;;
50954;SDS011;36966;48.064;-0.792;2022-12-15T15:08:55;6.80;;;3.78;;
50954;SDS011;36966;48.064;-0.792;2022-12-15T15:11:36;7.55;;;3.70;;
50954;SDS011;36966;48.064;-0.792;2022-12-15T15:13:59;6.90;;;3.55;;
50954;SDS011;36966;48.064;-0.792;2022-12-15T15:18:42;5.50;;;3.10;;
50954;SDS011;36966;48.064;-0.792;2022-12-15T15:21:03;4.90;;;3.10;;
50954;SDS011;36966;48.064;-0.792;2022-12-15T15:23:24;6.07;;;2.92;;
50954;SDS011;36966;48.064;-0.792;2022-12-15T15:25:47;7.18;;;3.08;;
50954;SDS011;36966;48.064;-0.792;2022-12-15T15:30:44;4.20;;;2.53;;
50954;SDS011;36966;48.064;-0.792;2022-12-15T15:33:12;7.43;;;2.78;;
50954;SDS011;36966;48.064;-0.792;2022-12-15T15:35:32;7.97;;;2.80;;
50954;SDS011;36966;48.064;-0.792;2022-12-15T15:37:52;11.45;;;3.70;;
50954;SDS011;36966;48.064;-0.792;2022-12-15T15:40:20;5.38;;;2.90;;
50954;SDS011;36966;48.064;-0.792;2022-12-15T15:42:39;10.88;;;4.05;;
50954;SDS011;36966;48.064;-0.792;2022-12-15T15:44:59;8.50;;;4.13;;
50954;SDS011;36966;48.064;-0.792;2022-12-15T15:47:20;12.90;;;4.35;;
50954;SDS011;36966;48.064;-0.792;2022-12-15T15:49:42;11.88;;;5.13;;
50954;SDS011;36966;48.064;-0.792;2022-12-15T15:52:03;7.18;;;3.67;;
50954;SDS011;36966;48.064;-0.792;2022-12-15T15:54:23;9.70;;;4.85;;
50954;SDS011;36966;48.064;-0.792;2022-12-15T15:56:46;10.70;;;4.10;;
50954;SDS011;36966;48.064;-0.792;2022-12-15T15:59:09;5.60;;;3.45;;
50954;SDS011;36966;48.064;-0.792;2022-12-15T16:01:30;8.15;;;3.60;;
50954;SDS011;36966;48.064;-0.792;2022-12-15T16:03:49;8.38;;;3.42;;
50954;SDS011;36966;48.064;-0.792;2022-12-15T16:06:15;7.93;;;3.95;;
50954;SDS011;36966;48.064;-0.792;2022-12-15T16:08:36;10.60;;;5.18;;